Time;durP1;ratioP1;P1;durP2;ratioP2;P2;SDS_P1;SDS_P2;PMS_P1;PMS_P2;Temp;Humidity;BMP_temperature;BMP_pressure;BME280_temperature;BME280_humidity;BME280_pressure;Samples;Min_cycle;Max_cycle;Signal;HPM_P1;HPM_P2
2020/12/18 00:02:09;;;;;;;25.93;16.50;;;;;;;2.61;85.53;99880.14;125223;1098;65201;-80
2020/12/18 00:04:55;;;;;;;23.43;16.27;;;;;;;2.64;85.72;99885.34;125167;1098;65187;-80
2020/12/18 00:07:23;;;;;;;25.07;17.40;;;;;;;2.66;85.44;99888.81;125232;1098;65150;-80
2020/12/18 00:09:49;;;;;;;23.77;15.90;;;;;;;2.68;85.53;99881.73;125204;1098;65179;-80
2020/12/18 00:12:16;;;;;;;23.67;16.40;;;;;;;2.72;85.73;99879.92;125277;1098;65127;-79
2020/12/18 00:14:42;;;;;;;20.60;14.60;;;;;;;2.75;85.42;99882.48;125286;1098;65291;-80
2020/12/18 00:24:20;;;;;;;22.87;15.53;;;;;;;2.82;85.02;99894.63;125395;1099;65162;-82
2020/12/18 00:26:46;;;;;;;23.00;15.30;;;;;;;2.82;85.32;99892.00;125287;1098;65176;-81
2020/12/18 00:29:13;;;;;;;27.57;16.47;;;;;;;2.83;85.02;99891.09;125253;1098;65140;-82
2020/12/18 00:31:40;;;;;;;21.90;15.43;;;;;;;2.85;85.35;99887.52;125305;1098;65281;-81
2020/12/18 00:48:54;;;;;;;24.95;16.65;;;;;;;2.94;84.84;99906.66;125307;1098;65126;-81
2020/12/18 00:51:20;;;;;;;22.23;15.17;;;;;;;2.96;85.10;99897.83;125222;1098;65176;-81
2020/12/18 01:07:20;;;;;;;22.40;15.50;;;;;;;2.95;84.66;99904.00;125284;1099;65198;-81
2020/12/18 01:09:46;;;;;;;23.60;15.27;;;;;;;2.96;84.90;99903.09;125279;1099;65172;-81
2020/12/18 01:12:13;;;;;;;23.60;16.43;;;;;;;2.99;84.90;99908.28;125265;1098;65147;-81
2020/12/18 01:14:40;;;;;;;26.10;18.17;;;;;;;3.00;84.81;99902.14;125253;1098;65172;-80
2020/12/18 01:17:08;;;;;;;27.73;17.50;;;;;;;3.01;84.70;99903.00;125263;1098;65146;-80
2020/12/18 01:19:36;;;;;;;27.17;17.93;;;;;;;3.01;84.73;99900.36;125258;1098;65552;-81
2020/12/18 01:22:03;;;;;;;21.27;15.70;;;;;;;3.02;84.69;99902.95;125214;1099;65262;-80
2020/12/18 01:24:30;;;;;;;21.75;15.60;;;;;;;3.03;84.76;99903.84;125329;1098;65170;-80
2020/12/18 01:26:57;;;;;;;23.00;16.00;;;;;;;3.03;84.43;99903.84;125311;1098;65172;-81
2020/12/18 01:29:25;;;;;;;25.40;16.70;;;;;;;3.03;84.58;99902.06;125267;1099;65208;-80
2020/12/18 01:31:52;;;;;;;22.75;15.65;;;;;;;3.06;84.67;99901.13;125342;1098;65130;-81
2020/12/18 01:34:18;;;;;;;23.57;16.27;;;;;;;3.06;84.30;99886.19;125212;1098;65253;-81
2020/12/18 01:36:45;;;;;;;24.33;17.10;;;;;;;3.06;84.68;99888.83;125332;1098;65030;-80
2020/12/18 01:39:11;;;;;;;25.13;17.50;;;;;;;3.07;84.93;99900.22;125303;1098;65203;-81
2020/12/18 01:41:38;;;;;;;22.43;15.80;;;;;;;3.08;84.82;99905.47;125243;1098;65402;-81
2020/12/18 01:44:04;;;;;;;22.47;16.90;;;;;;;3.11;84.71;99909.80;125344;1098;65179;-81
2020/12/18 01:46:30;;;;;;;25.47;17.10;;;;;;;3.15;84.77;99910.59;125302;1098;65281;-80
2020/12/18 01:48:58;;;;;;;24.10;17.13;;;;;;;3.17;84.32;99914.92;125250;1098;65152;-81
2020/12/18 01:51:26;;;;;;;27.50;17.45;;;;;;;3.18;84.55;99914.02;124883;1100;65141;-81
2020/12/18 01:53:53;;;;;;;28.40;18.70;;;;;;;3.18;84.48;99910.52;125240;1098;65140;-81
2020/12/18 01:56:22;;;;;;;30.05;18.20;;;;;;;3.17;84.27;99907.02;125232;1099;65050;-81
2020/12/18 01:58:50;;;;;;;24.45;18.25;;;;;;;3.18;84.56;99900.84;125362;1098;65137;-81
2020/12/18 02:01:17;;;;;;;23.43;15.87;;;;;;;3.18;84.30;99914.02;125278;1098;65352;-81
2020/12/18 02:03:43;;;;;;;25.50;17.07;;;;;;;3.19;84.43;99914.91;125336;1099;65126;-79
2020/12/18 02:06:14;;;;;;;29.10;19.73;;;;;;;3.19;84.20;99914.91;125143;1098;65292;-81
2020/12/18 02:08:43;;;;;;;29.10;19.30;;;;;;;3.19;84.37;99913.13;125347;1099;65156;-81
2020/12/18 02:11:20;;;;;;;26.93;17.40;;;;;;;3.18;84.47;99914.02;125254;1099;65252;-81
2020/12/18 02:13:56;;;;;;;30.20;18.85;;;;;;;3.17;84.60;99919.33;125290;1098;65608;-81
2020/12/18 02:16:23;;;;;;;25.67;17.37;;;;;;;3.17;84.12;99917.56;125351;1098;65129;-81
2020/12/18 02:18:50;;;;;;;28.20;18.23;;;;;;;3.17;84.43;99916.70;125301;1098;65159;-80
2020/12/18 02:21:17;;;;;;;26.30;18.45;;;;;;;3.18;84.50;99918.42;125330;1098;65527;-81
2020/12/18 02:23:44;;;;;;;25.20;17.47;;;;;;;3.17;84.72;99914.92;125295;1099;65259;-81
2020/12/18 02:26:12;;;;;;;26.90;18.60;;;;;;;3.18;84.69;99915.78;125349;1099;65232;-81
2020/12/18 02:28:40;;;;;;;31.60;20.53;;;;;;;3.17;84.54;99914.92;125308;1098;65233;-81
2020/12/18 02:31:08;;;;;;;28.03;19.73;;;;;;;3.18;84.91;99913.16;125237;1098;65185;-80
2020/12/18 02:33:35;;;;;;;30.03;19.77;;;;;;;3.20;84.54;99913.99;125330;1099;65120;-80
2020/12/18 02:36:03;;;;;;;24.45;18.25;;;;;;;3.19;84.57;99912.27;125261;1098;65131;-80
2020/12/18 02:38:30;;;;;;;30.45;19.45;;;;;;;3.17;84.63;99917.56;125267;1098;65242;-81
2020/12/18 02:40:57;;;;;;;28.40;20.47;;;;;;;3.18;84.62;99918.42;125238;1098;65153;-80
2020/12/18 02:43:24;;;;;;;28.73;19.70;;;;;;;3.19;84.58;99917.54;125264;1098;65332;-81
2020/12/18 02:45:50;;;;;;;30.95;20.60;;;;;;;3.18;84.52;99918.42;125306;1098;65149;-81
2020/12/18 02:48:17;;;;;;;27.70;19.30;;;;;;;3.13;84.80;99918.52;125286;1098;65099;-81
2020/12/18 02:50:49;;;;;;;31.03;20.10;;;;;;;3.13;84.77;99913.24;125244;1098;65085;-81
2020/12/18 02:53:18;;;;;;;31.50;20.93;;;;;;;3.14;84.92;99914.14;125302;1098;65253;-81
2020/12/18 02:55:45;;;;;;;41.93;25.50;;;;;;;3.15;84.64;99902.69;125290;1099;65249;-81
2020/12/18 02:58:12;;;;;;;31.13;21.00;;;;;;;3.19;84.54;99909.64;125300;1098;65159;-81
2020/12/18 03:00:40;;;;;;;29.25;20.30;;;;;;;3.19;84.80;99907.86;125283;1098;65147;-81
2020/12/18 03:03:07;;;;;;;31.30;19.80;;;;;;;3.17;84.60;99907.02;125293;1098;65127;-81
2020/12/18 03:05:35;;;;;;;30.47;20.53;;;;;;;3.19;84.85;99918.41;125300;1098;65134;-81
2020/12/18 03:08:03;;;;;;;32.13;21.50;;;;;;;3.18;84.49;99915.78;125253;1099;65425;-79
2020/12/18 03:10:29;;;;;;;28.60;20.55;;;;;;;3.17;84.82;99917.56;125229;1098;65153;-81
2020/12/18 03:12:56;;;;;;;28.10;20.60;;;;;;;3.17;84.37;99912.30;125309;1098;65134;-81
2020/12/18 03:15:22;;;;;;;29.57;20.17;;;;;;;3.19;84.81;99910.50;125330;1099;65140;-81
2020/12/18 03:17:49;;;;;;;31.07;21.37;;;;;;;3.22;84.84;99909.56;125284;1098;65231;-81
2020/12/18 03:20:15;;;;;;;26.80;19.82;;;;;;;3.24;84.88;99921.80;125248;1098;65134;-81
2020/12/18 03:22:42;;;;;;;29.10;19.80;;;;;;;3.26;84.55;99924.38;125333;1098;65175;-82
2020/12/18 03:25:08;;;;;;;32.93;20.80;;;;;;;3.25;84.13;99927.93;125232;1098;65144;-80
2020/12/18 03:27:35;;;;;;;35.60;20.87;;;;;;;3.24;85.06;99916.53;125263;1098;65172;-81
2020/12/18 03:30:01;;;;;;;33.17;21.53;;;;;;;3.24;84.62;99926.21;125290;1098;65188;-82
2020/12/18 03:32:28;;;;;;;28.57;19.83;;;;;;;3.24;84.45;99927.06;125318;1098;65233;-80
2020/12/18 03:34:55;;;;;;;31.23;20.63;;;;;;;3.24;84.73;99931.48;125248;1098;65237;-80
2020/12/18 03:37:22;;;;;;;30.43;20.07;;;;;;;3.23;84.57;99935.85;125205;1098;65842;-80
2020/12/18 03:39:48;;;;;;;32.70;22.85;;;;;;;3.24;84.80;99934.11;125283;1098;65144;-79
2020/12/18 03:42:15;;;;;;;30.23;21.60;;;;;;;3.27;84.59;99931.41;125317;1098;65150;-79
2020/12/18 03:44:41;;;;;;;31.80;20.63;;;;;;;3.25;84.75;99934.06;125255;1099;65403;-80
2020/12/18 03:47:08;;;;;;;28.30;19.70;;;;;;;3.25;84.40;99935.83;125346;1098;65166;-80
2020/12/18 03:49:34;;;;;;;30.67;18.90;;;;;;;3.23;84.61;99934.99;125322;1099;65153;-79
2020/12/18 03:52:00;;;;;;;29.63;19.83;;;;;;;3.24;84.75;99937.61;125309;1098;65140;-79
2020/12/18 03:54:27;;;;;;;30.93;18.63;;;;;;;3.27;85.09;99949.84;125332;1098;65144;-80
2020/12/18 03:56:53;;;;;;;29.80;18.33;;;;;;;3.25;84.47;99947.23;125305;1098;65380;-80
2020/12/18 03:59:19;;;;;;;26.95;18.37;;;;;;;3.25;84.58;99956.91;125261;1098;65147;-80
2020/12/18 04:01:46;;;;;;;28.90;19.03;;;;;;;3.22;84.64;99956.98;125335;1098;65070;-79
2020/12/18 04:04:12;;;;;;;30.30;19.87;;;;;;;3.21;84.53;99955.23;125366;1098;65130;-80
2020/12/18 04:06:39;;;;;;;31.25;20.40;;;;;;;3.20;84.71;99961.41;125348;1098;65249;-80
2020/12/18 04:09:05;;;;;;;36.10;22.15;;;;;;;3.19;84.54;99960.55;125267;1098;65197;-80
2020/12/18 04:11:32;;;;;;;36.27;21.60;;;;;;;3.20;84.43;99956.14;125328;1098;65153;-80
2020/12/18 04:13:58;;;;;;;34.03;22.77;;;;;;;3.20;84.66;99958.77;124881;1099;65208;-80
2020/12/18 04:16:24;;;;;;;33.27;20.93;;;;;;;3.19;84.72;99965.81;125289;1098;65154;-80
2020/12/18 04:18:51;;;;;;;31.30;18.70;;;;;;;3.15;84.49;99969.39;125321;1099;65131;-80
2020/12/18 04:21:17;;;;;;;30.57;20.63;;;;;;;3.11;84.58;99962.48;125308;1098;65166;-80
2020/12/18 04:23:45;;;;;;;31.33;18.90;;;;;;;3.11;84.56;99969.48;125328;1099;65140;-80
2020/12/18 04:26:12;;;;;;;31.27;20.40;;;;;;;3.11;84.33;99972.12;125286;1098;65239;-80
2020/12/18 04:28:38;;;;;;;30.13;19.27;;;;;;;3.11;84.60;99970.37;125346;1098;65076;-80
2020/12/18 04:31:05;;;;;;;33.90;19.80;;;;;;;3.11;84.58;99967.74;125312;1098;65700;-80
2020/12/18 04:33:31;;;;;;;28.00;18.95;;;;;;;3.12;84.71;99976.50;125303;1098;65099;-80
2020/12/18 04:35:57;;;;;;;33.60;20.90;;;;;;;3.11;84.79;99980.02;125339;1098;65134;-80
2020/12/18 04:38:24;;;;;;;33.83;20.27;;;;;;;3.09;84.81;99985.34;125312;1099;65580;-80
2020/12/18 04:40:51;;;;;;;32.80;19.57;;;;;;;3.06;84.55;99977.50;125226;1099;65144;-80
2020/12/18 04:43:18;;;;;;;32.67;21.03;;;;;;;3.05;84.67;99978.38;125277;1098;65133;-80
2020/12/18 04:45:46;;;;;;;30.73;20.47;;;;;;;3.05;84.48;99981.02;125299;1098;65300;-80
2020/12/18 04:48:13;;;;;;;31.10;20.43;;;;;;;3.07;84.68;99985.35;125303;1099;65255;-80
2020/12/18 04:50:40;;;;;;;30.43;20.97;;;;;;;3.07;84.88;99979.22;124895;1099;65185;-80
2020/12/18 04:53:07;;;;;;;26.83;18.10;;;;;;;3.06;84.55;99982.77;124867;1100;65172;-80
2020/12/18 04:55:35;;;;;;;30.80;21.45;;;;;;;3.04;84.89;99987.20;125320;1098;65182;-80
2020/12/18 04:58:03;;;;;;;33.13;20.73;;;;;;;3.03;84.81;99993.37;125306;1098;65604;-80
2020/12/18 05:00:30;;;;;;;31.63;21.27;;;;;;;3.02;85.16;99988.98;125287;1098;65124;-80
2020/12/18 05:03:00;;;;;;;34.60;21.50;;;;;;;3.01;85.14;99989.89;125229;1098;65152;-80
2020/12/18 05:05:27;;;;;;;30.20;20.37;;;;;;;3.01;85.25;99987.27;125332;1098;65226;-80
2020/12/18 05:07:53;;;;;;;32.25;23.35;;;;;;;3.02;85.41;99981.95;125221;1098;65202;-80
2020/12/18 05:10:20;;;;;;;33.40;22.37;;;;;;;3.01;85.16;99987.27;125287;1099;65240;-80
2020/12/18 05:12:47;;;;;;;34.30;21.25;;;;;;;2.98;85.38;99997.86;125292;1098;65200;-80
2020/12/18 05:15:14;;;;;;;32.73;20.67;;;;;;;2.95;85.49;99996.16;125310;1098;65256;-80
2020/12/18 05:17:42;;;;;;;30.00;17.17;;;;;;;2.91;85.50;99999.73;125368;1098;66351;-80
2020/12/18 05:20:09;;;;;;;25.73;17.87;;;;;;;2.89;85.54;99995.39;125323;1098;65137;-80
2020/12/18 05:22:37;;;;;;;25.90;17.80;;;;;;;2.88;85.81;99991.03;125220;1098;65221;-80
2020/12/18 05:25:05;;;;;;;25.67;17.17;;;;;;;2.89;85.78;100003.29;125311;1098;65156;-80
2020/12/18 05:27:31;;;;;;;28.00;18.10;;;;;;;2.89;85.66;100003.29;125339;1098;65152;-80
2020/12/18 05:30:05;;;;;;;29.00;17.07;;;;;;;2.84;85.91;100001.63;125223;1098;65194;-79
2020/12/18 05:32:33;;;;;;;26.90;17.37;;;;;;;2.82;86.10;100002.56;125342;1098;65153;-80
2020/12/18 05:34:59;;;;;;;28.80;18.60;;;;;;;2.83;86.18;100010.41;125306;1098;65192;-80
2020/12/18 05:37:35;;;;;;;26.23;17.47;;;;;;;2.82;85.96;100007.83;125265;1098;65102;-80
2020/12/18 05:40:02;;;;;;;25.80;17.80;;;;;;;2.83;86.09;100020.08;125342;1098;65109;-80
2020/12/18 05:42:29;;;;;;;24.30;16.35;;;;;;;2.83;86.22;100007.78;125269;1098;65258;-80
2020/12/18 05:45:11;;;;;;;27.30;17.30;;;;;;;2.85;86.14;100016.52;125205;1098;65217;-80
2020/12/18 05:47:57;;;;;;;26.73;16.60;;;;;;;2.85;86.19;100008.62;125387;1098;65176;-79
2020/12/18 05:50:29;;;;;;;29.03;17.70;;;;;;;2.84;86.40;100012.16;125361;1098;65259;-80
2020/12/18 05:53:02;;;;;;;27.80;19.30;;;;;;;2.85;85.98;100015.66;125229;1098;65166;-80
2020/12/18 05:55:35;;;;;;;32.43;20.20;;;;;;;2.88;85.99;100010.33;125372;1098;65080;-80
2020/12/18 05:58:01;;;;;;;31.93;19.43;;;;;;;2.90;86.43;100020.81;125330;1098;65156;-80
2020/12/18 06:00:28;;;;;;;34.80;21.80;;;;;;;2.90;86.08;100020.81;125320;1098;65220;-80
2020/12/18 06:03:02;;;;;;;33.60;21.35;;;;;;;2.93;86.31;100028.67;125410;1098;65211;-80
2020/12/18 06:05:30;;;;;;;40.77;24.67;;;;;;;2.94;86.11;100020.73;125344;1099;65143;-80
2020/12/18 06:07:57;;;;;;;40.33;25.67;;;;;;;2.97;86.07;100030.34;125351;1099;65143;-81
2020/12/18 06:10:25;;;;;;;35.50;23.70;;;;;;;2.97;86.52;100030.34;125329;1098;65256;-80
2020/12/18 06:13:01;;;;;;;40.80;26.37;;;;;;;2.97;86.08;100033.83;125222;1099;65166;-80
2020/12/18 06:15:27;;;;;;;35.33;23.83;;;;;;;2.99;86.04;100031.18;125299;1098;65282;-80
2020/12/18 06:17:55;;;;;;;32.47;21.23;;;;;;;2.98;86.41;100032.95;125205;1098;65194;-80
2020/12/18 06:20:21;;;;;;;33.07;19.60;;;;;;;2.98;86.52;100035.59;125245;1098;65323;-80
2020/12/18 06:22:59;;;;;;;31.03;18.40;;;;;;;2.98;86.15;100035.59;125327;1099;65149;-81
2020/12/18 06:25:26;;;;;;;30.90;19.43;;;;;;;2.99;86.21;100034.67;125321;1098;65130;-81
2020/12/18 06:28:00;;;;;;;30.00;18.10;;;;;;;3.01;86.30;100040.78;125242;1098;65128;-81
2020/12/18 06:30:27;;;;;;;31.67;18.63;;;;;;;3.02;86.40;100039.88;125259;1098;65248;-81
2020/12/18 06:32:54;;;;;;;33.40;19.03;;;;;;;3.01;86.43;100045.19;125231;1098;65272;-81
2020/12/18 06:35:27;;;;;;;29.27;20.17;;;;;;;2.97;86.28;100041.73;125240;1098;65162;-81
2020/12/18 06:37:53;;;;;;;28.60;18.65;;;;;;;2.99;86.21;100058.38;125314;1098;65188;-81
2020/12/18 06:40:32;;;;;;;27.55;17.55;;;;;;;2.99;86.32;100050.47;125260;1098;65208;-81
2020/12/18 06:42:59;;;;;;;28.13;17.07;;;;;;;2.99;86.48;100049.61;125328;1099;65137;-82
2020/12/18 06:45:26;;;;;;;29.30;18.50;;;;;;;3.02;86.47;100053.05;125241;1099;65108;-81
2020/12/18 06:47:53;;;;;;;32.37;19.03;;;;;;;3.04;86.51;100053.03;125250;1098;65156;-83
2020/12/18 06:50:21;;;;;;;29.93;18.90;;;;;;;3.05;86.33;100047.75;125316;1098;65134;-81
2020/12/18 06:52:55;;;;;;;29.17;16.73;;;;;;;3.07;86.20;100059.09;125314;1098;66348;-82
2020/12/18 06:55:28;;;;;;;23.83;16.77;;;;;;;3.05;86.48;100055.65;125287;1099;65150;-81
2020/12/18 06:58:16;;;;;;;28.40;17.93;;;;;;;3.04;86.53;100050.39;125368;1099;65130;-83
2020/12/18 07:00:59;;;;;;;30.67;17.93;;;;;;;3.03;86.16;100054.80;125369;1098;65521;-82
2020/12/18 07:03:40;;;;;;;30.70;18.60;;;;;;;3.05;86.34;100067.92;125306;1098;65153;-82
2020/12/18 07:06:08;;;;;;;28.80;18.20;;;;;;;3.07;86.19;100066.13;125307;1098;65176;-82
2020/12/18 07:08:36;;;;;;;32.47;19.53;;;;;;;3.08;86.55;100059.95;125304;1099;65150;-82
2020/12/18 07:11:08;;;;;;;32.97;22.27;;;;;;;3.11;86.70;100062.56;125321;1098;65152;-82
2020/12/18 07:13:35;;;;;;;35.67;22.80;;;;;;;3.12;86.25;100064.28;125337;1098;65176;-81
2020/12/18 07:16:07;;;;;;;35.13;22.67;;;;;;;3.15;86.45;100072.12;125218;1098;65334;-82
2020/12/18 07:18:36;;;;;;;33.30;21.20;;;;;;;3.18;86.43;100071.19;125321;1098;65159;-82
2020/12/18 07:21:11;;;;;;;35.25;22.75;;;;;;;3.20;86.40;100069.41;125321;1098;65098;-80
2020/12/18 07:23:41;;;;;;;34.60;21.20;;;;;;;3.21;86.19;100072.02;125226;1098;65172;-81
2020/12/18 07:26:09;;;;;;;32.73;21.77;;;;;;;3.22;86.22;100075.52;125261;1099;65166;-83
2020/12/18 07:28:37;;;;;;;31.10;20.30;;;;;;;3.24;86.40;100074.59;125240;1098;65226;-82
2020/12/18 07:31:14;;;;;;;32.83;20.57;;;;;;;3.26;86.10;100079.81;125299;1098;65137;-82
2020/12/18 07:33:41;;;;;;;32.93;21.77;;;;;;;3.28;86.14;100080.65;125295;1098;65243;-82
2020/12/18 07:36:09;;;;;;;30.97;21.03;;;;;;;3.28;86.38;100080.65;125225;1098;65198;-81
2020/12/18 07:38:36;;;;;;;36.17;22.33;;;;;;;3.27;85.94;100079.80;125324;1098;65127;-81
2020/12/18 07:41:10;;;;;;;34.17;22.20;;;;;;;3.29;86.32;100083.27;125285;1098;65226;-81
2020/12/18 07:43:37;;;;;;;39.17;23.87;;;;;;;3.34;86.09;100082.30;125304;1098;65191;-82
2020/12/18 07:46:10;;;;;;;33.03;20.57;;;;;;;3.40;86.02;100088.33;125336;1098;65567;-81
2020/12/18 07:48:39;;;;;;;31.70;20.20;;;;;;;3.44;86.18;100086.48;125362;1098;65050;-81
2020/12/18 07:51:15;;;;;;;32.50;21.70;;;;;;;3.49;86.11;100088.13;125358;1098;65126;-81
2020/12/18 07:53:43;;;;;;;32.63;21.97;;;;;;;3.53;85.96;100091.58;125362;1098;65239;-81
2020/12/18 07:56:17;;;;;;;32.17;20.70;;;;;;;3.55;85.85;100088.89;125301;1098;65235;-81
2020/12/18 07:58:57;;;;;;;32.93;21.73;;;;;;;3.59;85.77;100088.80;125259;1098;65067;-82
2020/12/18 08:01:26;;;;;;;;;;;;;;;3.62;85.88;100079.97;125345;1099;65108;-82
2020/12/18 08:03:58;;;;;;;30.50;20.70;;;;;;;3.64;85.43;100079.04;125410;1098;65570;-83
2020/12/18 08:06:27;;;;;;;28.00;19.93;;;;;;;3.68;85.92;100085.10;125344;1098;65172;-82
2020/12/18 08:09:02;;;;;;;32.53;20.57;;;;;;;3.74;85.30;100087.63;125007;1099;65072;-82
2020/12/18 08:11:30;;;;;;;38.17;24.83;;;;;;;3.80;85.30;100087.48;125313;1098;65137;-82
2020/12/18 08:13:58;;;;;;;31.80;21.57;;;;;;;3.85;85.62;100080.34;125352;1098;65099;-83
2020/12/18 08:16:30;;;;;;;33.77;24.33;;;;;;;3.89;85.48;100092.54;125373;1098;65165;-83
2020/12/18 08:18:59;;;;;;;35.17;21.77;;;;;;;3.94;85.33;100084.53;125303;1098;65086;-83
2020/12/18 08:21:36;;;;;;;33.40;22.10;;;;;;;4.03;85.41;100084.34;125346;1098;65140;-82
2020/12/18 08:24:26;;;;;;;31.17;20.87;;;;;;;4.10;85.25;100083.28;125277;1098;65124;-83
2020/12/18 08:27:15;;;;;;;29.93;20.20;;;;;;;4.19;84.93;100087.50;125292;1098;65118;-81
2020/12/18 08:29:44;;;;;;;29.37;20.40;;;;;;;4.26;85.13;100091.70;125335;1099;65144;-81
2020/12/18 08:32:22;;;;;;;29.25;19.25;;;;;;;4.34;84.83;100080.97;125324;1098;65199;-81
2020/12/18 08:34:50;;;;;;;32.50;22.33;;;;;;;4.43;84.85;100095.73;125351;1098;65128;-85
2020/12/18 08:37:22;;;;;;;27.20;18.40;;;;;;;4.51;84.52;100096.41;125324;1098;65150;-82
2020/12/18 08:39:48;;;;;;;28.20;19.67;;;;;;;4.56;84.36;100094.53;125340;1098;65130;-82
2020/12/18 08:42:15;;;;;;;29.45;21.25;;;;;;;4.63;84.56;100090.81;125289;1098;65144;-82
2020/12/18 08:44:43;;;;;;;29.73;22.13;;;;;;;4.68;84.59;100096.84;125195;1098;65163;-85
2020/12/18 08:47:36;;;;;;;31.25;20.70;;;;;;;4.71;84.11;100096.77;125186;1098;65205;-83
2020/12/18 08:50:05;;;;;;;33.27;22.00;;;;;;;4.75;83.99;100101.08;125363;1098;65185;-86
2020/12/18 08:52:31;;;;;;;31.87;21.70;;;;;;;4.79;84.13;100094.82;125179;1099;65134;-87
2020/12/18 08:55:07;;;;;;;27.35;19.25;;;;;;;4.82;84.15;100105.30;125289;1098;65137;-86
2020/12/18 08:57:38;;;;;;;34.10;21.63;;;;;;;4.86;83.95;100092.88;125202;1098;65211;-86
2020/12/18 09:00:09;;;;;;;30.03;20.33;;;;;;;4.88;83.49;100106.05;125272;1098;65233;-86
2020/12/18 09:02:42;;;;;;;28.93;20.00;;;;;;;4.89;83.86;100110.41;125335;1098;65073;-86
2020/12/18 09:05:34;;;;;;;29.27;19.67;;;;;;;4.87;83.48;100102.55;125294;1098;65115;-86
2020/12/18 09:08:05;;;;;;;27.43;18.70;;;;;;;4.89;83.20;100115.70;125320;1099;65146;-86
2020/12/18 09:10:37;;;;;;;31.53;21.00;;;;;;;4.86;83.44;100102.58;125245;1098;65262;-86
2020/12/18 09:13:14;;;;;;;25.45;17.40;;;;;;;4.88;83.27;100114.84;125409;1098;65124;-86
2020/12/18 09:15:44;;;;;;;26.65;18.95;;;;;;;4.91;83.25;100116.53;125372;1098;65144;-84
2020/12/18 09:18:12;;;;;;;28.07;19.07;;;;;;;4.96;83.30;100115.50;125357;1098;65230;-86
2020/12/18 09:20:42;;;;;;;28.90;20.07;;;;;;;5.05;83.28;100111.74;125350;1098;65527;-84
2020/12/18 09:23:13;;;;;;;26.62;19.60;;;;;;;5.09;83.21;100118.70;125220;1098;65487;-84
2020/12/18 09:25:42;;;;;;;29.25;20.05;;;;;;;5.12;82.77;100115.11;125317;1098;65139;-84
2020/12/18 09:28:17;;;;;;;27.77;20.53;;;;;;;5.19;82.89;100117.55;125358;1098;65140;-85
2020/12/18 09:30:55;;;;;;;30.97;19.83;;;;;;;5.25;83.19;100112.09;125365;1098;65315;-85
2020/12/18 09:33:29;;;;;;;31.03;20.33;;;;;;;5.33;82.79;100114.52;125325;1098;65166;-85
2020/12/18 09:35:59;;;;;;;31.47;21.27;;;;;;;5.39;82.54;100108.19;125358;1098;65214;-86
2020/12/18 09:38:28;;;;;;;30.25;20.35;;;;;;;5.47;82.48;100114.13;125441;1098;65281;-84
2020/12/18 09:40:56;;;;;;;29.47;19.57;;;;;;;5.50;82.18;100114.03;125300;1099;65150;-84
2020/12/18 09:43:22;;;;;;;28.07;19.10;;;;;;;5.53;82.38;100113.98;125356;1098;65147;-85
2020/12/18 09:45:50;;;;;;;33.53;20.90;;;;;;;5.61;82.00;100117.27;125284;1098;65179;-86
2020/12/18 09:48:18;;;;;;;31.93;19.80;;;;;;;5.65;81.39;100121.54;125258;1100;65156;-86
2020/12/18 09:50:45;;;;;;;32.33;21.23;;;;;;;5.63;81.39;100110.12;125321;1098;65207;-85
2020/12/18 09:53:11;;;;;;;31.77;20.80;;;;;;;5.64;81.71;100105.73;125346;1098;65156;-86
2020/12/18 09:55:38;;;;;;;31.17;21.17;;;;;;;5.68;81.44;100110.00;125265;1098;65640;-86
2020/12/18 09:58:05;;;;;;;29.07;20.07;;;;;;;5.67;81.15;100103.86;125276;1098;65147;-86
2020/12/18 10:00:32;;;;;;;28.17;19.03;;;;;;;5.70;81.26;100109.05;125258;1099;65252;-86
2020/12/18 10:02:58;;;;;;;29.50;19.77;;;;;;;5.78;81.47;100110.61;125321;1098;65235;-86
2020/12/18 10:05:26;;;;;;;31.77;21.23;;;;;;;5.86;81.30;100100.67;125258;1098;65194;-85
2020/12/18 10:07:53;;;;;;;27.60;19.50;;;;;;;5.88;80.96;100107.65;125347;1098;65137;-86
2020/12/18 10:10:20;;;;;;;30.77;20.80;;;;;;;5.91;80.94;100110.20;125311;1098;65117;-86
2020/12/18 10:12:46;;;;;;;29.50;20.40;;;;;;;5.93;80.47;100112.81;125293;1098;65147;-86
2020/12/18 10:15:13;;;;;;;32.63;21.00;;;;;;;5.97;80.83;100101.23;125269;1098;65211;-86
2020/12/18 10:17:40;;;;;;;35.10;22.13;;;;;;;6.03;80.69;100110.77;125261;1099;65235;-86
2020/12/18 10:20:06;;;;;;;28.97;19.73;;;;;;;6.05;80.61;100099.22;125279;1098;65156;-83
2020/12/18 10:22:33;;;;;;;32.50;22.07;;;;;;;6.04;80.21;100099.28;125280;1099;65127;-84
2020/12/18 10:24:59;;;;;;;31.67;19.97;;;;;;;6.02;79.79;100103.75;125275;1098;65248;-84
2020/12/18 10:27:26;;;;;;;30.93;20.77;;;;;;;5.99;80.24;100109.14;125256;1098;65202;-84
2020/12/18 10:29:54;;;;;;;30.00;20.47;;;;;;;6.01;80.66;100099.39;125261;1098;65133;-85
2020/12/18 10:32:26;;;;;;;30.00;20.73;;;;;;;6.04;80.48;100100.15;125272;1098;65258;-84
2020/12/18 10:34:53;;;;;;;30.93;21.13;;;;;;;6.11;80.29;100108.78;125253;1099;65211;-84
2020/12/18 10:37:19;;;;;;;35.77;22.73;;;;;;;6.17;80.17;100105.07;125225;1098;65131;-84
2020/12/18 10:39:45;;;;;;;32.73;22.17;;;;;;;6.14;80.20;100106.89;125321;1098;65204;-84
2020/12/18 10:42:12;;;;;;;36.33;25.33;;;;;;;6.14;80.07;100106.03;125339;1098;65127;-84
2020/12/18 10:44:38;;;;;;;28.25;21.27;;;;;;;6.20;80.26;100110.27;125198;1098;65242;-85
2020/12/18 10:47:05;;;;;;;29.53;20.53;;;;;;;6.22;80.22;100106.66;125317;1098;65099;-84
2020/12/18 10:49:31;;;;;;;29.83;20.80;;;;;;;6.25;80.24;100106.55;125360;1098;65237;-84
2020/12/18 10:51:58;;;;;;;28.40;20.37;;;;;;;6.32;80.22;100108.11;125282;1098;65512;-84
2020/12/18 10:54:24;;;;;;;29.37;20.23;;;;;;;6.34;80.29;100108.03;125377;1099;65147;-84
2020/12/18 10:56:52;;;;;;;25.75;19.10;;;;;;;6.35;79.67;100101.84;125329;1099;65246;-85
2020/12/18 10:59:18;;;;;;;26.17;19.60;;;;;;;6.36;80.01;100104.42;125367;1098;65123;-84
2020/12/18 11:01:45;;;;;;;26.05;19.20;;;;;;;6.39;79.70;100100.81;125292;1098;65163;-84
2020/12/18 11:04:11;;;;;;;27.43;19.93;;;;;;;6.46;80.29;100099.71;125307;1098;65233;-84
2020/12/18 11:06:38;;;;;;;28.00;20.07;;;;;;;6.54;79.63;100105.63;125306;1098;65189;-84
2020/12/18 11:09:06;;;;;;;27.23;19.27;;;;;;;6.59;79.67;100108.98;125315;1098;65099;-84
2020/12/18 11:11:32;;;;;;;26.70;18.93;;;;;;;6.63;79.67;100104.45;125181;1098;65169;-84
2020/12/18 11:13:59;;;;;;;28.00;19.23;;;;;;;6.71;79.62;100096.25;125225;1098;65322;-85
2020/12/18 11:16:25;;;;;;;26.70;20.03;;;;;;;6.71;78.43;100099.75;125259;1098;65204;-84
2020/12/18 11:18:52;;;;;;;26.47;18.93;;;;;;;6.68;78.80;100097.21;125276;1098;65134;-84
2020/12/18 11:21:18;;;;;;;28.03;19.90;;;;;;;6.66;79.08;100104.38;125600;1098;65134;-89
2020/12/18 11:23:46;;;;;;;29.63;20.30;;;;;;;6.69;79.22;100103.38;125799;1099;65216;-94
2020/12/18 11:26:19;;;;;;;26.67;19.33;;;;;;;6.70;79.21;100098.03;127107;1094;65243;31
2020/12/18 11:28:46;;;;;;;29.37;18.97;;;;;;;6.67;78.90;100098.14;125177;1100;65586;-92
2020/12/18 11:31:12;;;;;;;24.80;19.10;;;;;;;6.64;78.89;100095.59;125021;1100;65191;-90
2020/12/18 11:33:39;;;;;;;24.70;18.15;;;;;;;6.61;78.47;100098.36;125042;1100;65205;-90
2020/12/18 11:36:05;;;;;;;24.92;18.67;;;;;;;6.59;78.74;100095.75;125095;1100;65220;-90
2020/12/18 11:38:31;;;;;;;26.90;18.60;;;;;;;6.60;79.16;100093.95;125159;1100;65329;-85
2020/12/18 11:40:58;;;;;;;27.13;19.27;;;;;;;6.66;79.23;100090.23;125309;1098;65169;-87
2020/12/18 11:43:27;;;;;;;27.97;19.57;;;;;;;6.67;79.07;100092.84;124811;1100;65293;-87
2020/12/18 11:46:02;;;;;;;28.50;19.40;;;;;;;6.62;78.95;100091.27;124896;1098;65130;-85
2020/12/18 11:48:30;;;;;;;27.93;19.90;;;;;;;6.59;78.89;100092.23;124816;1100;65086;-84
2020/12/18 11:50:59;;;;;;;26.20;18.90;;;;;;;6.58;79.18;100086.08;125309;1098;65227;-83
2020/12/18 11:53:26;;;;;;;29.33;20.60;;;;;;;6.59;79.02;100094.89;125318;1098;65210;-84
2020/12/18 11:55:52;;;;;;;30.17;20.73;;;;;;;6.60;78.83;100093.95;125385;1098;65150;-85